createdAt,value
2023-04-18T00:04:21.002Z,9.20
2023-04-18T00:09:24.548Z,9.80
2023-04-18T00:14:30.067Z,9.20
2023-04-18T00:19:34.339Z,9.40
2023-04-18T00:24:37.092Z,9.60
2023-04-18T00:29:40.794Z,9.40
2023-04-18T00:34:45.202Z,9.00
2023-04-18T00:39:48.186Z,9.00
2023-04-18T00:44:50.986Z,8.40
2023-04-18T00:49:55.219Z,9.00
2023-04-18T00:54:58.023Z,9.60
2023-04-18T01:00:00.981Z,10.00
2023-04-18T01:05:06.640Z,9.60
2023-04-18T01:10:10.476Z,8.40
2023-04-18T01:15:13.225Z,9.80
2023-04-18T01:20:17.428Z,10.60
2023-04-18T01:25:21.534Z,9.00
2023-04-18T01:30:24.259Z,9.60
2023-04-18T01:35:27.213Z,9.00
2023-04-18T01:40:33.500Z,9.00
2023-04-18T01:45:36.271Z,9.40
2023-04-18T01:50:39.053Z,8.60
2023-04-18T01:55:43.214Z,9.60
2023-04-18T02:00:46.160Z,8.40
2023-04-18T02:05:48.976Z,11.20
2023-04-18T02:10:53.095Z,10.80
2023-04-18T02:15:56.896Z,9.00
2023-04-18T02:20:59.896Z,8.00
2023-04-18T02:26:05.766Z,9.00
2023-04-18T02:31:14.350Z,11.40
2023-04-18T02:36:17.225Z,8.80
2023-04-18T02:41:21.405Z,9.00
2023-04-18T02:46:24.205Z,9.00
2023-04-18T02:51:28.124Z,9.80
2023-04-18T02:56:39.718Z,9.00
2023-04-18T03:01:51.736Z,10.60
2023-04-18T03:06:59.122Z,8.40
2023-04-18T03:12:04.053Z,9.00
2023-04-18T03:17:07.970Z,11.00
2023-04-18T03:22:16.336Z,10.80
2023-04-18T03:27:28.694Z,10.80
2023-04-18T03:32:35.092Z,10.80
2023-04-18T03:37:38.178Z,11.20
2023-04-18T03:42:44.124Z,9.00
2023-04-18T03:47:47.173Z,11.00
2023-04-18T03:52:50.850Z,10.80
2023-04-18T03:57:55.721Z,8.60
2023-04-18T04:03:03.754Z,10.80
2023-04-18T04:08:07.342Z,11.00
2023-04-18T04:13:12.028Z,10.80
2023-04-18T04:18:16.987Z,11.00
2023-04-18T04:23:20.538Z,10.60
2023-04-18T04:28:26.132Z,12.00
2023-04-18T04:33:35.495Z,12.00
2023-04-18T04:38:44.233Z,10.20
2023-04-18T04:43:49.790Z,12.00
2023-04-18T04:48:55.559Z,12.00
2023-04-18T04:53:58.407Z,12.00
2023-04-18T04:59:02.880Z,12.60
2023-04-18T05:04:10.946Z,11.00
2023-04-18T05:09:14.227Z,9.00
2023-04-18T05:14:20.419Z,11.00
2023-04-18T05:19:23.680Z,10.20
2023-04-18T05:24:26.889Z,11.40
2023-04-18T05:29:31.203Z,14.40
2023-04-18T05:34:38.044Z,11.80
2023-04-18T05:39:41.705Z,12.40
2023-04-18T05:44:45.816Z,12.00
2023-04-18T05:49:48.544Z,12.40
2023-04-18T05:54:51.491Z,11.40
2023-04-18T05:59:55.817Z,11.00
2023-04-18T06:04:58.831Z,11.00
2023-04-18T06:10:01.957Z,11.00
2023-04-18T06:15:07.365Z,13.80
2023-04-18T06:20:11.410Z,12.00
2023-04-18T06:25:14.947Z,11.20
2023-04-18T06:30:21.763Z,11.00
2023-04-18T06:35:26.551Z,12.00
2023-04-18T06:40:29.602Z,11.80
2023-04-18T06:45:33.849Z,9.40
2023-04-18T06:50:36.758Z,10.80
2023-04-18T06:55:40.712Z,11.80
2023-04-18T07:00:47.561Z,14.60
2023-04-18T07:05:50.513Z,14.00
2023-04-18T07:10:53.272Z,14.60
2023-04-18T07:15:57.506Z,13.80
2023-04-18T07:21:00.363Z,14.20
2023-04-18T07:26:03.290Z,15.00
2023-04-18T07:31:11.219Z,18.00
2023-04-18T07:36:14.114Z,18.00
2023-04-18T07:41:16.924Z,17.40
2023-04-18T07:46:21.228Z,12.20
2023-04-18T07:51:25.512Z,15.60
2023-04-18T07:56:28.566Z,16.00
2023-04-18T08:01:32.729Z,14.40
2023-04-18T08:06:35.700Z,13.80
2023-04-18T08:11:38.969Z,25.00
2023-04-18T08:16:43.128Z,25.00
2023-04-18T08:21:45.933Z,23.60
2023-04-18T08:26:48.667Z,25.40
2023-04-18T08:31:53.024Z,26.00
2023-04-18T08:36:56.599Z,19.80
2023-04-18T08:41:59.937Z,17.00
2023-04-18T08:47:04.055Z,19.60
2023-04-18T08:52:09.975Z,16.40
2023-04-18T08:57:16.499Z,16.60
2023-04-18T09:02:22.089Z,18.00
2023-04-18T09:07:28.770Z,17.40
2023-04-18T09:12:32.633Z,16.00
2023-04-18T09:17:38.027Z,15.20
2023-04-18T09:22:46.373Z,15.40
2023-04-18T09:27:49.239Z,16.40
2023-04-18T09:33:00.176Z,16.20
2023-04-18T09:38:03.235Z,16.20
2023-04-18T09:43:18.716Z,14.00
2023-04-18T09:48:23.022Z,14.00
2023-04-18T09:53:25.921Z,14.40
2023-04-18T09:58:28.773Z,15.00
2023-04-18T10:03:35.633Z,14.00
2023-04-18T10:08:38.671Z,15.60
2023-04-18T10:13:42.456Z,15.80
2023-04-18T10:18:46.788Z,11.60
2023-04-18T10:23:50.401Z,12.00
2023-04-18T10:28:54.428Z,16.00
2023-04-18T10:34:17.894Z,14.60
2023-04-18T10:39:21.984Z,15.00
2023-04-18T10:44:24.863Z,15.60
2023-04-18T10:49:32.049Z,15.60
2023-04-18T10:54:38.944Z,19.00
2023-04-18T10:59:43.079Z,21.40
2023-04-18T11:04:51.258Z,22.20
2023-04-18T11:09:54.968Z,22.00
2023-04-18T11:14:57.916Z,22.60
2023-04-18T11:20:03.407Z,27.20
2023-04-18T11:25:08.752Z,26.00
2023-04-18T11:30:12.285Z,30.00
2023-04-18T11:35:16.813Z,30.80
2023-04-18T11:40:19.777Z,29.80
2023-04-18T11:45:22.552Z,28.40
2023-04-18T11:50:26.925Z,29.20
2023-04-18T11:55:29.700Z,31.50
2023-04-18T12:00:34.240Z,29.50
2023-04-18T12:05:39.139Z,32.20
2023-04-18T12:10:47.458Z,31.20
2023-04-18T12:15:50.685Z,35.00
2023-04-18T12:20:55.057Z,32.60
2023-04-18T12:26:02.098Z,30.80
2023-04-18T12:31:07.259Z,30.00
2023-04-18T12:36:11.815Z,32.75
2023-04-18T12:41:14.622Z,33.00
2023-04-18T12:46:17.448Z,28.80
2023-04-18T12:51:21.819Z,29.50
2023-04-18T12:56:24.669Z,44.50
2023-04-18T13:01:27.862Z,83.00
2023-04-18T13:06:32.015Z,159.75
2023-04-18T13:11:35.246Z,186.67
2023-04-18T13:16:38.351Z,162.25
2023-04-18T13:21:44.291Z,147.00
2023-04-18T13:26:47.135Z,133.25
2023-04-18T13:31:50.239Z,116.25
2023-04-18T13:36:54.371Z,113.75
2023-04-18T13:41:57.709Z,113.25
2023-04-18T13:47:01.058Z,109.00
2023-04-18T13:52:05.577Z,104.50
2023-04-18T13:57:11.492Z,103.75
2023-04-18T14:02:14.619Z,98.50
2023-04-18T14:07:19.031Z,97.25
2023-04-18T14:12:22.310Z,91.25
2023-04-18T14:17:25.443Z,98.25
2023-04-18T14:22:29.803Z,94.50
2023-04-18T14:27:32.908Z,97.50
2023-04-18T14:32:35.840Z,92.25
2023-04-18T14:37:40.317Z,88.50
2023-04-18T14:42:43.149Z,86.00
2023-04-18T14:47:46.030Z,85.00
2023-04-18T14:52:50.284Z,89.75
2023-04-18T14:57:54.674Z,82.00
2023-04-18T15:02:57.547Z,84.25
2023-04-18T15:08:02.037Z,82.25
2023-04-18T15:13:05.253Z,78.25
2023-04-18T15:18:08.689Z,80.00
2023-04-18T15:23:13.758Z,74.25
2023-04-18T15:28:18.224Z,77.00
2023-04-18T15:33:21.053Z,74.25
2023-04-18T15:38:25.375Z,74.00
2023-04-18T15:43:28.200Z,74.00
2023-04-18T15:48:34.114Z,73.75
2023-04-18T15:53:38.239Z,73.50
2023-04-18T15:58:41.039Z,73.75
2023-04-18T16:03:44.108Z,69.00
2023-04-18T16:08:48.333Z,72.00
2023-04-18T16:13:51.100Z,71.00
2023-04-18T16:18:53.864Z,72.25
2023-04-18T16:23:58.225Z,69.25
2023-04-18T16:29:01.096Z,67.00
2023-04-18T16:34:04.161Z,67.75
2023-04-18T16:39:08.549Z,62.00
2023-04-18T16:44:11.344Z,61.50
2023-04-18T16:49:14.480Z,61.00
2023-04-18T16:54:18.669Z,62.75
2023-04-18T16:59:21.502Z,59.67
2023-04-18T17:04:26.747Z,61.00
2023-04-18T17:09:31.173Z,61.00
2023-04-18T17:14:34.078Z,59.00
2023-04-18T17:19:37.151Z,57.00
2023-04-18T17:24:41.399Z,55.00
2023-04-18T17:29:44.386Z,53.67
2023-04-18T17:34:47.264Z,56.67
2023-04-18T17:39:51.451Z,57.00
2023-04-18T17:44:54.250Z,53.67
2023-04-18T17:49:57.089Z,55.33
2023-04-18T17:55:01.446Z,55.33
2023-04-18T18:00:08.874Z,54.67
2023-04-18T18:05:16.534Z,51.00
2023-04-18T18:10:23.145Z,51.67
2023-04-18T18:15:26.282Z,52.33
2023-04-18T18:20:29.339Z,51.33
2023-04-18T18:25:33.894Z,50.67
2023-04-18T18:30:38.032Z,52.00
2023-04-18T18:35:40.957Z,54.33
2023-04-18T18:40:45.431Z,52.00
2023-04-18T18:45:48.283Z,52.00
2023-04-18T18:50:51.929Z,47.67
2023-04-18T18:55:56.237Z,45.33
2023-04-18T19:01:02.494Z,51.00
2023-04-18T19:06:07.359Z,51.00
2023-04-18T19:11:12.734Z,50.67
2023-04-18T19:16:15.931Z,48.00
2023-04-18T19:21:20.138Z,47.00
2023-04-18T19:26:24.399Z,46.67
2023-04-18T19:31:27.415Z,46.33
2023-04-18T19:36:30.812Z,45.50
2023-04-18T19:41:34.949Z,46.00
2023-04-18T19:46:37.734Z,43.50
2023-04-18T19:51:40.678Z,44.00
2023-04-18T19:56:44.772Z,43.75
2023-04-18T20:01:47.519Z,42.25
2023-04-18T20:06:50.477Z,46.50
2023-04-18T20:11:54.812Z,42.75
2023-04-18T20:16:57.815Z,43.00
2023-04-18T20:22:00.623Z,42.50
2023-04-18T20:27:04.948Z,41.25
2023-04-18T20:32:07.787Z,42.00
2023-04-18T20:37:10.649Z,38.50
2023-04-18T20:42:15.002Z,40.00
2023-04-18T20:47:17.984Z,41.00
2023-04-18T20:52:20.746Z,39.75
2023-04-18T20:57:25.037Z,39.50
2023-04-18T21:02:28.004Z,40.25
2023-04-18T21:07:32.076Z,41.50
2023-04-18T21:12:36.217Z,37.75
2023-04-18T21:17:39.075Z,37.75
2023-04-18T21:22:41.833Z,37.50
2023-04-18T21:27:46.022Z,39.75
2023-04-18T21:32:51.336Z,36.75
2023-04-18T21:37:54.465Z,37.25
2023-04-18T21:42:58.577Z,34.25
2023-04-18T21:48:01.421Z,36.00
2023-04-18T21:53:04.246Z,36.50
2023-04-18T21:58:08.403Z,34.25
2023-04-18T22:03:11.670Z,31.75
2023-04-18T22:08:16.145Z,32.50
2023-04-18T22:13:20.445Z,33.50
2023-04-18T22:18:23.267Z,33.25
2023-04-18T22:23:27.242Z,36.00
2023-04-18T22:28:32.312Z,31.50
2023-04-18T22:33:35.320Z,33.00
2023-04-18T22:38:38.148Z,30.50
2023-04-18T22:43:42.408Z,31.40
2023-04-18T22:48:46.170Z,34.75
2023-04-18T22:53:49.396Z,29.80
2023-04-18T22:58:53.500Z,32.50
2023-04-18T23:03:56.663Z,25.75
2023-04-18T23:08:59.646Z,29.50
2023-04-18T23:14:03.831Z,25.20
2023-04-18T23:19:06.706Z,28.40
2023-04-18T23:24:10.670Z,27.80
2023-04-18T23:29:15.071Z,28.80
2023-04-18T23:34:17.869Z,28.40
2023-04-18T23:39:21.541Z,27.40
2023-04-18T23:44:25.765Z,27.00
2023-04-18T23:49:28.589Z,28.60
2023-04-18T23:54:31.388Z,25.80
2023-04-18T23:59:35.491Z,25.20
